Time;durP1;ratioP1;P1;durP2;ratioP2;P2;SDS_P1;SDS_P2;PMS_P1;PMS_P2;Temp;Humidity;BMP_temperature;BMP_pressure;BME280_temperature;BME280_humidity;BME280_pressure;Samples;Min_cycle;Max_cycle;Signal;HPM_P1;HPM_P2
2023/08/15 00:00:29;;;;;;;6.30;4.50;;;;;;;22.22;62.10;97086.34;108636;1274;22521;-78
2023/08/15 00:03:20;;;;;;;5.70;4.40;;;;;;;22.20;62.04;97086.05;108615;1274;24222;-78
2023/08/15 00:05:51;;;;;;;6.30;4.60;;;;;;;22.17;62.11;97085.21;108649;1274;23344;-77
2023/08/15 00:08:22;;;;;;;7.50;5.10;;;;;;;22.16;62.13;97082.47;108616;1269;22616;-78
2023/08/15 00:10:53;;;;;;;5.80;4.20;;;;;;;22.14;62.11;97084.41;108649;1274;22533;-78
2023/08/15 00:13:24;;;;;;;6.10;4.30;;;;;;;22.13;62.01;97087.01;108665;1267;26557;-77
2023/08/15 00:15:55;;;;;;;8.30;4.40;;;;;;;22.12;62.22;97088.16;108633;1274;22555;-77
2023/08/15 00:18:26;;;;;;;6.40;4.60;;;;;;;22.11;62.13;97083.09;108649;1274;22517;-77
2023/08/15 00:20:57;;;;;;;5.20;4.50;;;;;;;22.07;62.13;97083.50;108622;1274;22521;-78
2023/08/15 00:23:28;;;;;;;5.70;4.90;;;;;;;22.04;62.16;97083.16;108665;1274;24186;-77
2023/08/15 00:26:00;;;;;;;5.90;4.50;;;;;;;22.02;62.08;97085.95;108617;1274;22538;-78
2023/08/15 00:28:31;;;;;;;6.80;4.80;;;;;;;22.00;62.22;97079.80;108651;1274;22552;-77
2023/08/15 00:31:02;;;;;;;5.60;4.70;;;;;;;21.98;62.13;97078.75;108603;1274;22521;-78
2023/08/15 00:33:33;;;;;;;6.30;4.50;;;;;;;22.00;62.37;97077.86;108649;1267;22539;-77
2023/08/15 00:36:06;;;;;;;7.70;4.50;;;;;;;21.99;62.39;97078.16;108575;1267;22543;-77
2023/08/15 00:38:37;;;;;;;6.30;4.10;;;;;;;22.01;62.24;97078.52;108665;1274;22829;-77
2023/08/15 00:41:09;;;;;;;8.60;4.40;;;;;;;21.99;62.18;97076.01;108631;1274;22538;-78
2023/08/15 00:43:40;;;;;;;8.00;4.30;;;;;;;21.99;62.31;97077.39;108630;1274;22513;-78
2023/08/15 00:46:12;;;;;;;4.80;4.20;;;;;;;22.00;62.18;97073.16;108549;1274;25529;-77
2023/08/15 00:48:43;;;;;;;7.00;4.40;;;;;;;21.97;62.19;97066.31;108630;1274;22547;-77
2023/08/15 00:51:16;;;;;;;5.50;4.00;;;;;;;21.97;62.23;97073.09;108621;1274;22514;-77
2023/08/15 00:53:50;;;;;;;8.80;4.20;;;;;;;21.99;62.20;97072.00;108639;1274;22583;-77
2023/08/15 00:56:23;;;;;;;6.70;4.80;;;;;;;22.01;62.25;97072.51;108597;1269;22517;-78
2023/08/15 00:58:55;;;;;;;5.40;4.50;;;;;;;22.00;62.32;97074.63;108635;1274;24391;-77
2023/08/15 01:01:29;;;;;;;7.90;4.20;;;;;;;21.99;62.22;97074.83;108615;1274;26568;-77
2023/08/15 01:04:00;;;;;;;5.10;4.20;;;;;;;21.99;62.35;97077.31;108625;1275;23734;-77
2023/08/15 01:06:31;;;;;;;8.30;4.70;;;;;;;21.99;62.30;97076.38;108617;1274;22590;-77
2023/08/15 01:09:02;;;;;;;6.40;4.60;;;;;;;21.98;62.49;97077.29;108631;1274;22524;-77
2023/08/15 01:11:41;;;;;;;5.70;4.30;;;;;;;21.93;62.34;97071.73;108652;1274;22657;-77
2023/08/15 01:14:19;;;;;;;5.30;4.70;;;;;;;21.91;62.31;97072.60;108646;1272;22556;-77
2023/08/15 01:16:53;;;;;;;7.80;4.10;;;;;;;21.90;62.45;97068.09;108602;1267;25432;-77
2023/08/15 01:19:34;;;;;;;7.40;4.90;;;;;;;21.90;62.70;97067.26;108691;1274;22976;-77
2023/08/15 01:22:11;;;;;;;8.70;5.00;;;;;;;21.87;62.71;97067.94;108619;1269;22517;-77
2023/08/15 01:24:43;;;;;;;5.80;4.80;;;;;;;21.81;62.84;97065.20;108576;1272;22533;-77
2023/08/15 01:27:14;;;;;;;6.60;4.90;;;;;;;21.77;62.80;97066.38;108643;1274;22556;-77
2023/08/15 01:29:45;;;;;;;7.60;5.00;;;;;;;21.72;62.96;97074.55;108960;1274;22535;-78
2023/08/15 01:32:24;;;;;;;6.20;4.20;;;;;;;21.65;62.88;97074.41;108958;1267;22537;-77
2023/08/15 01:35:04;;;;;;;5.60;4.50;;;;;;;21.61;62.84;97075.14;108995;1272;22538;-77
2023/08/15 01:37:40;;;;;;;7.10;5.10;;;;;;;21.68;63.21;97074.21;108960;1274;24390;-77
2023/08/15 01:40:16;;;;;;;7.50;5.30;;;;;;;21.68;63.40;97071.67;108997;1268;22528;-77
2023/08/15 01:42:50;;;;;;;8.50;5.50;;;;;;;21.67;63.40;97071.63;108667;1274;22515;-77
2023/08/15 01:45:21;;;;;;;8.80;6.00;;;;;;;21.58;63.42;97070.05;108639;1274;22517;-78
2023/08/15 01:47:52;;;;;;;8.80;5.60;;;;;;;21.48;63.59;97068.64;108602;1274;22619;-77
2023/08/15 01:50:23;;;;;;;6.20;5.20;;;;;;;21.41;63.73;97071.49;108646;1274;22544;-77
2023/08/15 01:52:54;;;;;;;7.40;5.40;;;;;;;21.34;63.81;97070.90;108637;1274;22542;-77
2023/08/15 01:55:25;;;;;;;6.10;5.10;;;;;;;21.26;64.05;97069.73;108644;1274;22513;-77
2023/08/15 01:57:56;;;;;;;7.50;5.30;;;;;;;21.21;64.18;97068.82;108686;1275;22547;-77
2023/08/15 02:00:27;;;;;;;7.10;5.30;;;;;;;21.17;64.27;97078.04;108665;1268;22555;-77
2023/08/15 02:03:01;;;;;;;6.50;5.40;;;;;;;21.12;64.40;97080.25;108615;1274;22632;-77
2023/08/15 02:05:32;;;;;;;6.20;4.80;;;;;;;21.10;64.54;97083.30;108618;1274;22531;-78
2023/08/15 02:08:03;;;;;;;6.20;4.70;;;;;;;21.07;64.50;97083.52;108661;1267;22524;-77
2023/08/15 02:10:34;;;;;;;6.70;5.20;;;;;;;21.05;64.74;97083.08;108666;1274;25239;-77
2023/08/15 02:13:05;;;;;;;7.50;4.70;;;;;;;21.06;64.77;97085.67;108617;1274;22544;-78
2023/08/15 02:15:37;;;;;;;5.80;5.20;;;;;;;21.08;64.86;97087.72;108597;1275;22568;-78
2023/08/15 02:18:09;;;;;;;5.50;5.00;;;;;;;21.10;64.79;97084.86;108633;1267;22536;-77
2023/08/15 02:20:40;;;;;;;7.80;4.80;;;;;;;21.10;64.91;97085.24;108654;1274;22574;-77
2023/08/15 02:23:11;;;;;;;7.90;4.90;;;;;;;21.09;64.99;97082.61;108642;1267;22531;-77
2023/08/15 02:25:43;;;;;;;7.90;4.50;;;;;;;21.11;65.06;97082.49;108639;1275;22517;-77
2023/08/15 02:28:14;;;;;;;10.10;5.20;;;;;;;21.08;64.92;97083.34;108645;1265;22536;-77
2023/08/15 02:30:45;;;;;;;8.40;4.70;;;;;;;21.04;64.70;97086.45;108621;1274;22547;-77
2023/08/15 02:33:16;;;;;;;6.90;4.60;;;;;;;21.01;64.81;97081.98;108660;1267;22528;-77
2023/08/15 02:35:47;;;;;;;8.20;5.00;;;;;;;21.02;64.97;97081.60;108658;1253;23292;-78
2023/08/15 02:38:18;;;;;;;6.80;4.70;;;;;;;20.98;64.97;97077.46;108648;1269;25323;-77
2023/08/15 02:40:50;;;;;;;7.40;4.70;;;;;;;20.95;65.02;97080.73;108604;1267;22550;-78
2023/08/15 02:43:21;;;;;;;5.80;4.50;;;;;;;20.92;65.03;97082.36;108595;1267;22615;-77
2023/08/15 02:45:52;;;;;;;6.70;4.80;;;;;;;20.88;65.13;97082.77;108603;1268;26570;-78
2023/08/15 02:48:23;;;;;;;5.50;4.60;;;;;;;20.87;65.39;97082.56;108635;1274;24245;-77
2023/08/15 02:50:55;;;;;;;6.40;4.50;;;;;;;20.85;65.46;97090.26;108634;1267;22634;-77
2023/08/15 02:53:26;;;;;;;5.90;4.40;;;;;;;20.85;65.70;97091.97;108793;1274;23672;-77
2023/08/15 02:55:56;;;;;;;7.40;4.60;;;;;;;20.84;65.57;97094.33;108515;1274;66652;-78
2023/08/15 02:58:28;;;;;;;7.10;4.80;;;;;;;20.82;65.62;97094.09;108763;1269;22622;-77
2023/08/15 03:01:02;;;;;;;7.30;4.50;;;;;;;20.82;65.75;97092.61;108768;1267;22525;-77
2023/08/15 03:03:33;;;;;;;6.70;4.90;;;;;;;20.81;65.85;97091.73;108783;1269;22524;-78
2023/08/15 03:06:04;;;;;;;9.50;4.70;;;;;;;20.81;65.97;97093.89;108735;1274;28379;-78
2023/08/15 03:08:38;;;;;;;5.60;5.00;;;;;;;20.80;65.95;97093.08;108766;1267;22538;-77
2023/08/15 03:11:09;;;;;;;7.50;5.10;;;;;;;20.79;66.00;97095.82;108776;1274;22518;-77
2023/08/15 03:13:41;;;;;;;7.40;4.90;;;;;;;20.78;66.18;97102.17;108773;1269;22524;-78
2023/08/15 03:16:12;;;;;;;5.20;4.70;;;;;;;20.78;66.18;97104.33;108735;1269;22523;-78
2023/08/15 03:18:46;;;;;;;7.20;4.90;;;;;;;20.79;66.33;97104.62;108741;1268;22530;-78
2023/08/15 03:21:17;;;;;;;6.70;5.10;;;;;;;20.82;66.44;97100.31;108758;1274;22532;-78
2023/08/15 03:23:48;;;;;;;6.30;5.20;;;;;;;20.83;66.34;97100.66;108795;1274;23297;-78
2023/08/15 03:26:22;;;;;;;7.20;4.80;;;;;;;20.83;66.44;97104.05;108767;1274;23187;-78
2023/08/15 03:28:54;;;;;;;7.10;5.20;;;;;;;20.81;66.42;97102.91;108781;1267;22517;-78
2023/08/15 03:31:25;;;;;;;5.00;4.40;;;;;;;20.79;66.34;97105.60;108738;1261;22518;-78
2023/08/15 03:33:56;;;;;;;5.90;4.80;;;;;;;20.76;66.40;97104.59;108737;1274;23809;-77
2023/08/15 03:36:27;;;;;;;6.70;4.60;;;;;;;20.76;66.46;97104.19;108755;1274;26849;-78
2023/08/15 03:38:58;;;;;;;7.90;5.60;;;;;;;20.76;66.56;97104.91;108759;1274;24223;-77
2023/08/15 03:41:29;;;;;;;7.50;5.60;;;;;;;20.80;66.63;97105.31;108820;1274;22556;-77
2023/08/15 03:44:02;;;;;;;6.90;5.00;;;;;;;20.80;66.55;97102.17;108757;1267;22511;-77
2023/08/15 03:46:33;;;;;;;5.60;5.00;;;;;;;20.79;66.54;97105.45;108735;1274;47708;-77
2023/08/15 03:49:04;;;;;;;8.20;4.70;;;;;;;20.77;66.60;97107.48;108824;1274;22566;-78
2023/08/15 03:51:35;;;;;;;7.60;4.70;;;;;;;20.79;66.60;97107.29;108765;1251;22566;-78
2023/08/15 03:54:08;;;;;;;7.80;4.70;;;;;;;20.83;66.66;97109.14;108745;1269;22530;-77
2023/08/15 03:56:39;;;;;;;7.20;4.50;;;;;;;20.85;66.63;97109.29;108787;1267;32934;-77
2023/08/15 03:59:10;;;;;;;6.20;4.70;;;;;;;20.84;66.61;97109.04;108823;1268;22544;-77
2023/08/15 04:01:41;;;;;;;5.30;4.60;;;;;;;20.84;66.73;97111.64;108745;1274;23711;-77
2023/08/15 04:04:13;;;;;;;5.00;4.40;;;;;;;20.83;66.71;97112.05;108817;1274;25438;-77
2023/08/15 04:06:44;;;;;;;6.90;4.30;;;;;;;20.82;66.70;97108.94;108822;1274;22526;-77
2023/08/15 04:09:16;;;;;;;5.80;4.60;;;;;;;20.83;66.89;97105.92;108781;1271;24129;-77
2023/08/15 04:11:48;;;;;;;5.40;4.50;;;;;;;20.89;66.81;97108.81;108775;1272;22706;-77
2023/08/15 04:14:21;;;;;;;7.00;4.80;;;;;;;20.93;66.91;97108.48;108831;1272;22539;-77
2023/08/15 04:16:53;;;;;;;9.30;5.10;;;;;;;20.97;66.80;97110.70;108737;1274;22515;-77
2023/08/15 04:19:24;;;;;;;5.90;5.10;;;;;;;21.02;66.86;97111.26;108759;1253;22527;-77
2023/08/15 04:21:56;;;;;;;5.60;4.70;;;;;;;21.03;66.76;97113.52;108771;1274;22515;-76
2023/08/15 04:24:28;;;;;;;8.40;5.00;;;;;;;21.05;66.79;97114.29;108760;1274;25483;-77
2023/08/15 04:27:00;;;;;;;5.30;4.10;;;;;;;21.09;66.77;97114.11;108773;1274;26366;-77
2023/08/15 04:29:31;;;;;;;7.50;4.60;;;;;;;21.12;66.85;97115.77;108815;1274;25425;-77
2023/08/15 04:32:02;;;;;;;5.80;4.90;;;;;;;21.16;66.74;97114.66;108772;1274;26431;-77
2023/08/15 04:34:33;;;;;;;5.80;5.00;;;;;;;21.22;66.83;97118.02;108756;1274;22521;-77
2023/08/15 04:37:04;;;;;;;6.60;4.70;;;;;;;21.36;67.22;97116.48;108789;1263;22530;-77
2023/08/15 04:39:36;;;;;;;8.70;4.90;;;;;;;21.60;67.34;97114.21;108760;1274;22520;-76
2023/08/15 04:42:09;;;;;;;5.50;4.90;;;;;;;22.24;68.24;97115.70;108730;1272;22782;-76
2023/08/15 04:44:43;;;;;;;5.80;4.50;;;;;;;23.06;66.85;97116.80;108736;1274;22955;-76
2023/08/15 04:47:15;;;;;;;5.80;4.70;;;;;;;23.73;65.69;97116.55;108764;1274;24405;-77
2023/08/15 04:49:47;;;;;;;5.00;3.80;;;;;;;24.40;64.62;97117.27;108831;1274;23791;-77
2023/08/15 04:52:18;;;;;;;6.60;4.50;;;;;;;25.04;63.54;97115.94;108772;1261;22521;-77
2023/08/15 04:54:50;;;;;;;6.30;4.50;;;;;;;25.46;62.10;97117.52;108774;1274;22535;-77
2023/08/15 04:57:24;;;;;;;7.70;4.20;;;;;;;26.04;61.90;97119.00;108800;1274;25543;-77
2023/08/15 04:59:56;;;;;;;6.20;4.30;;;;;;;26.48;60.09;97117.98;108846;1267;22629;-77
2023/08/15 05:02:28;;;;;;;4.60;3.90;;;;;;;26.60;58.99;97121.55;108757;1274;22519;-77
2023/08/15 05:05:01;;;;;;;4.70;4.20;;;;;;;26.55;57.52;97120.10;108772;1274;23469;-78
2023/08/15 05:07:32;;;;;;;4.30;3.60;;;;;;;26.18;56.57;97124.09;108752;1274;22575;-78
2023/08/15 05:10:04;;;;;;;7.50;4.10;;;;;;;26.06;57.09;97123.61;108741;1269;22645;-78
2023/08/15 05:12:35;;;;;;;5.30;3.80;;;;;;;26.44;57.10;97122.35;108770;1274;25387;-78
2023/08/15 05:15:10;;;;;;;4.40;4.00;;;;;;;26.66;56.41;97119.45;108787;1274;22630;-78
2023/08/15 05:17:48;;;;;;;6.70;4.00;;;;;;;26.63;55.66;97125.55;108813;1269;24338;-78
2023/08/15 05:20:21;;;;;;;7.20;3.80;;;;;;;26.83;55.63;97123.68;108789;1274;22626;-78
2023/08/15 05:22:58;;;;;;;3.50;3.20;;;;;;;26.93;54.95;97124.66;108815;1274;22526;-78
2023/08/15 05:25:34;;;;;;;5.70;4.00;;;;;;;26.99;54.69;97130.48;108776;1274;23422;-78
2023/08/15 05:28:12;;;;;;;5.50;4.10;;;;;;;27.29;55.18;97131.41;108758;1268;22544;-78
2023/08/15 05:30:45;;;;;;;5.70;4.00;;;;;;;27.89;54.92;97133.42;108850;1274;22535;-78
2023/08/15 05:33:19;;;;;;;4.80;3.60;;;;;;;28.38;54.03;97134.46;108758;1269;22559;-78
2023/08/15 05:35:52;;;;;;;5.10;3.90;;;;;;;28.70;53.48;97136.02;108772;1268;23936;-78
2023/08/15 05:38:25;;;;;;;4.10;3.70;;;;;;;29.24;53.25;97135.02;108774;1272;23280;-75
2023/08/15 05:40:58;;;;;;;4.90;3.70;;;;;;;29.42;51.72;97132.65;108812;1269;22556;-75
2023/08/15 05:43:30;;;;;;;5.10;3.50;;;;;;;29.34;51.53;97135.27;108739;1268;22532;-76
2023/08/15 05:46:04;;;;;;;6.00;4.10;;;;;;;29.19;50.74;97135.56;108710;1268;22525;-75
2023/08/15 05:48:37;;;;;;;5.20;4.30;;;;;;;29.04;50.43;97136.79;108772;1274;22543;-76
2023/08/15 05:51:08;;;;;;;5.20;3.80;;;;;;;28.72;49.83;97136.34;108771;1268;22638;-76
2023/08/15 05:53:39;;;;;;;6.50;3.90;;;;;;;28.45;50.46;97140.11;108746;1274;22505;-75
2023/08/15 05:56:11;;;;;;;6.10;4.20;;;;;;;28.54;50.36;97138.98;108714;1267;22550;-76
2023/08/15 05:58:43;;;;;;;6.00;4.20;;;;;;;28.66;50.38;97135.37;108797;1274;22564;-76
2023/08/15 06:01:14;;;;;;;4.70;4.00;;;;;;;28.78;50.58;97134.82;108772;1272;24787;-77
2023/08/15 06:03:45;;;;;;;4.40;4.00;;;;;;;28.87;50.09;97135.46;108700;1267;22519;-76
2023/08/15 06:06:17;;;;;;;4.10;3.50;;;;;;;28.66;49.60;97139.59;108678;1272;24014;-76
2023/08/15 06:08:48;;;;;;;5.10;3.40;;;;;;;28.29;49.18;97143.13;108696;1269;24206;-77
2023/08/15 06:11:19;;;;;;;5.20;3.70;;;;;;;28.17;49.90;97139.38;108702;1267;22504;-76
2023/08/15 06:13:51;;;;;;;5.40;4.20;;;;;;;28.32;50.04;97137.85;108615;1269;25237;-77
2023/08/15 06:16:22;;;;;;;4.40;3.20;;;;;;;28.64;49.86;97138.25;108719;1274;22572;-76
2023/08/15 06:18:53;;;;;;;4.30;3.90;;;;;;;28.58;49.71;97138.61;108757;1275;22525;-77
2023/08/15 06:21:25;;;;;;;5.50;3.70;;;;;;;28.53;49.31;97137.04;108739;1274;26474;-77
2023/08/15 06:23:56;;;;;;;4.70;3.80;;;;;;;28.51;49.74;97138.58;108746;1274;22528;-77
2023/08/15 06:26:27;;;;;;;5.40;4.00;;;;;;;28.83;49.80;97141.92;108716;1274;22594;-77
2023/08/15 06:28:59;;;;;;;5.00;3.70;;;;;;;29.04;49.41;97140.45;108752;1274;22533;-77
2023/08/15 06:31:31;;;;;;;5.20;3.90;;;;;;;29.30;49.24;97139.49;108756;1269;22510;-77
2023/08/15 06:34:03;;;;;;;4.10;3.20;;;;;;;29.50;48.94;97134.77;108811;1274;25480;-77
2023/08/15 06:36:35;;;;;;;3.70;3.40;;;;;;;29.51;48.18;97134.38;108762;1272;22577;-76
2023/08/15 06:39:06;;;;;;;9.10;3.80;;;;;;;29.19;47.73;97142.11;108786;1269;22542;-77
2023/08/15 06:41:38;;;;;;;6.90;3.90;;;;;;;28.91;47.65;97138.21;108728;1274;22544;-76
2023/08/15 06:44:09;;;;;;;5.90;3.70;;;;;;;28.41;47.20;97139.92;108776;1253;25237;-77
2023/08/15 06:46:41;;;;;;;5.60;3.50;;;;;;;28.18;48.17;97142.44;108575;1271;24310;-77
2023/08/15 06:49:12;;;;;;;5.10;3.10;;;;;;;28.40;48.68;97141.10;108614;1274;24267;-78
2023/08/15 06:51:43;;;;;;;3.80;3.40;;;;;;;28.56;48.14;97143.29;108652;1274;22926;-77
2023/08/15 06:54:15;;;;;;;3.90;3.50;;;;;;;28.43;48.67;97145.78;108500;1274;23210;-77
2023/08/15 06:56:46;;;;;;;5.50;3.70;;;;;;;28.49;48.76;97151.36;108578;1272;22660;-78
2023/08/15 06:59:20;;;;;;;6.30;3.50;;;;;;;28.69;49.07;97150.60;108627;1274;22539;-77
2023/08/15 07:01:53;;;;;;;4.60;3.40;;;;;;;28.82;48.81;97150.95;108671;1274;25258;-78
2023/08/15 07:04:25;;;;;;;4.30;3.40;;;;;;;28.67;47.97;97147.70;108648;1269;26437;-79
2023/08/15 07:06:58;;;;;;;7.50;3.80;;;;;;;28.72;48.75;97150.84;108669;1271;22598;-77
2023/08/15 07:09:29;;;;;;;5.30;3.50;;;;;;;28.75;48.37;97148.59;108593;1269;24363;-77
2023/08/15 07:12:00;;;;;;;4.40;3.10;;;;;;;28.76;47.94;97153.66;108632;1274;25392;-77
2023/08/15 07:14:33;;;;;;;4.10;3.20;;;;;;;28.56;47.78;97160.19;108618;1274;22531;-77
2023/08/15 07:17:04;;;;;;;3.80;3.00;;;;;;;28.63;48.05;97153.77;108616;1268;22532;-76
2023/08/15 07:19:36;;;;;;;4.30;3.30;;;;;;;28.81;47.74;97153.99;108614;1274;22562;-77
2023/08/15 07:22:07;;;;;;;5.00;3.20;;;;;;;28.96;47.85;97153.30;108636;1274;22542;-77
2023/08/15 07:24:39;;;;;;;5.10;3.20;;;;;;;29.25;47.84;97155.63;108616;1274;22557;-77
2023/08/15 07:27:10;;;;;;;4.90;3.30;;;;;;;29.56;47.49;97149.23;108597;1272;22948;-77
2023/08/15 07:29:42;;;;;;;5.10;3.00;;;;;;;29.82;47.00;97148.14;108651;1274;22538;-77
2023/08/15 07:32:14;;;;;;;5.20;3.60;;;;;;;30.01;46.77;97151.34;108608;1272;22726;-76
2023/08/15 07:34:46;;;;;;;6.30;3.00;;;;;;;30.14;46.57;97152.42;108647;1272;22518;-76
2023/08/15 07:37:18;;;;;;;4.70;3.20;;;;;;;30.32;46.37;97150.98;108549;1274;22508;-76
2023/08/15 07:40:03;;;;;;;6.70;3.00;;;;;;;30.41;45.98;97149.88;108651;1274;22636;-76
2023/08/15 07:42:35;;;;;;;3.60;3.10;;;;;;;30.45;45.82;97153.29;108653;1274;25291;-76
2023/08/15 07:45:08;;;;;;;6.90;3.40;;;;;;;30.61;45.64;97154.81;108605;1274;22517;-76
2023/08/15 07:47:39;;;;;;;4.80;3.00;;;;;;;30.62;45.45;97157.24;108609;1274;22529;-76
2023/08/15 07:50:18;;;;;;;5.30;2.80;;;;;;;30.39;44.87;97152.38;108622;1267;23661;-76
2023/08/15 07:52:50;;;;;;;4.90;2.90;;;;;;;30.03;44.65;97153.90;108636;1274;22523;-79
2023/08/15 07:55:22;;;;;;;4.00;3.10;;;;;;;29.96;44.85;97156.86;108652;1274;22590;-77
2023/08/15 07:57:53;;;;;;;4.90;3.30;;;;;;;30.00;44.58;97158.66;108619;1274;24510;-77
2023/08/15 08:00:25;;;;;;;5.80;3.00;;;;;;;30.17;45.06;97158.36;108535;1274;22544;-78
2023/08/15 08:02:59;;;;;;;6.40;2.90;;;;;;;30.41;44.95;97152.52;108650;1274;24259;-78
2023/08/15 08:05:32;;;;;;;3.30;2.60;;;;;;;30.48;44.33;97150.55;108642;1274;22527;-77
2023/08/15 08:08:05;;;;;;;4.60;2.60;;;;;;;30.53;44.11;97148.89;108506;1267;22531;-78
2023/08/15 08:10:36;;;;;;;5.20;3.00;;;;;;;30.65;43.90;97150.52;108558;1272;22517;-79
2023/08/15 08:13:11;;;;;;;4.10;2.80;;;;;;;30.74;43.77;97146.97;108624;1275;22656;-79
2023/08/15 08:15:42;;;;;;;3.40;3.10;;;;;;;30.78;43.79;97147.89;108592;1274;22525;-79
2023/08/15 08:18:14;;;;;;;5.60;3.00;;;;;;;30.85;43.92;97145.52;108581;1272;26417;-78
2023/08/15 08:20:45;;;;;;;3.60;3.10;;;;;;;31.01;43.73;97148.00;108639;1261;24225;-77
2023/08/15 08:23:16;;;;;;;3.10;2.80;;;;;;;31.16;43.53;97145.99;108591;1272;24239;-79
2023/08/15 08:25:48;;;;;;;5.50;2.90;;;;;;;31.23;43.66;97146.36;108593;1269;23842;-79
2023/08/15 08:28:19;;;;;;;3.30;3.00;;;;;;;31.21;43.17;97146.52;108593;1274;22500;-81
2023/08/15 08:30:50;;;;;;;5.30;3.20;;;;;;;31.18;43.12;97149.41;108512;1274;25363;-78
2023/08/15 08:33:21;;;;;;;4.20;3.10;;;;;;;31.29;43.23;97147.34;108536;1272;25360;-80
2023/08/15 08:35:53;;;;;;;4.40;3.20;;;;;;;31.38;43.08;97145.46;108610;1274;24269;-80
2023/08/15 08:38:24;;;;;;;3.50;3.00;;;;;;;31.13;42.83;97145.07;108627;1253;22518;-80
2023/08/15 08:40:57;;;;;;;5.70;2.80;;;;;;;30.98;43.59;97140.13;108618;1267;22575;-80
2023/08/15 08:43:30;;;;;;;4.50;3.20;;;;;;;31.14;43.62;97140.59;108583;1272;22554;-79
2023/08/15 08:46:05;;;;;;;4.30;3.00;;;;;;;31.15;43.25;97137.69;108582;1274;22517;-79
2023/08/15 08:48:42;;;;;;;4.50;3.20;;;;;;;31.15;43.33;97133.86;108599;1275;22525;-79
2023/08/15 08:51:16;;;;;;;5.90;3.30;;;;;;;31.25;42.77;97131.94;108514;1274;197041;-79
2023/08/15 08:53:48;;;;;;;4.60;3.20;;;;;;;31.39;42.81;97130.20;108626;1272;22522;-78
2023/08/15 08:56:22;;;;;;;3.40;3.00;;;;;;;31.31;42.41;97130.65;108588;1274;22693;-78
2023/08/15 08:59:08;;;;;;;11.30;5.70;;;;;;;31.45;43.07;97129.14;108745;1272;22534;-78
2023/08/15 09:01:41;;;;;;;8.10;4.00;;;;;;;31.60;42.82;97128.71;108750;1272;22628;-78
2023/08/15 09:04:15;;;;;;;5.50;3.90;;;;;;;31.48;42.13;97125.13;108767;1274;22520;-78
2023/08/15 09:06:47;;;;;;;10.50;5.00;;;;;;;31.45;42.43;97125.78;108594;1267;51274;-78
2023/08/15 09:09:19;;;;;;;4.50;3.00;;;;;;;31.53;41.61;97124.39;108773;1267;22570;-79
2023/08/15 09:11:52;;;;;;;5.00;2.80;;;;;;;31.60;42.31;97124.88;108766;1272;22525;-79
2023/08/15 09:14:25;;;;;;;11.40;5.20;;;;;;;31.81;42.03;97124.25;108784;1272;22533;-79
2023/08/15 09:16:58;;;;;;;6.20;3.00;;;;;;;31.45;40.76;97119.89;108764;1267;22536;-80
2023/08/15 09:19:29;;;;;;;5.90;3.60;;;;;;;30.93;40.30;97119.58;108750;1272;22541;-79
2023/08/15 09:22:00;;;;;;;5.80;3.30;;;;;;;30.49;40.13;97117.40;108721;1272;25381;-81
2023/08/15 09:24:32;;;;;;;4.60;2.70;;;;;;;30.48;41.19;97116.77;108694;1274;22559;-81
2023/08/15 09:27:08;;;;;;;4.60;2.70;;;;;;;30.69;41.35;97115.08;108542;1272;24463;-80
2023/08/15 09:29:41;;;;;;;4.00;2.50;;;;;;;30.84;40.67;97112.75;108601;1274;23178;-81
2023/08/15 09:32:12;;;;;;;3.90;2.60;;;;;;;30.77;40.18;97108.40;108591;1267;25488;-82
2023/08/15 09:34:43;;;;;;;4.40;2.60;;;;;;;30.72;39.81;97107.23;108576;1274;22519;-82
2023/08/15 09:37:15;;;;;;;4.10;2.90;;;;;;;30.42;39.37;97105.54;108606;1274;22516;-82
2023/08/15 09:39:47;;;;;;;9.90;2.70;;;;;;;30.09;39.49;97105.86;108655;1272;22525;-82
2023/08/15 09:42:21;;;;;;;5.10;2.50;;;;;;;30.09;40.65;97104.92;108616;1275;22522;-82
2023/08/15 09:44:54;;;;;;;4.50;2.60;;;;;;;30.31;40.80;97107.14;108624;1275;22529;-82
2023/08/15 09:47:26;;;;;;;4.60;2.70;;;;;;;30.47;40.58;97103.02;108618;1275;26498;-82
2023/08/15 09:50:01;;;;;;;5.00;3.00;;;;;;;30.55;40.78;97100.17;108585;1275;22536;-82
2023/08/15 09:52:32;;;;;;;3.10;2.50;;;;;;;30.59;40.58;97096.88;108639;1274;22541;-80
2023/08/15 09:55:03;;;;;;;4.40;2.70;;;;;;;30.67;41.17;97091.55;108629;1272;22517;-80
2023/08/15 09:57:34;;;;;;;3.80;2.70;;;;;;;30.76;40.88;97086.35;108597;1272;22521;-80
2023/08/15 10:00:11;;;;;;;5.00;2.60;;;;;;;30.76;40.99;97090.27;108667;1272;24219;-80
2023/08/15 10:02:47;;;;;;;6.70;2.80;;;;;;;30.81;41.67;97086.39;108730;1270;22565;-80
2023/08/15 10:05:21;;;;;;;4.20;2.90;;;;;;;30.87;42.22;97090.52;108710;1274;22531;-78
2023/08/15 10:07:53;;;;;;;5.30;3.20;;;;;;;30.91;42.16;97087.29;108713;1267;22514;-79
2023/08/15 10:10:25;;;;;;;6.20;3.10;;;;;;;30.84;42.00;97087.63;108603;1269;22551;-78
2023/08/15 10:12:58;;;;;;;5.40;3.00;;;;;;;30.72;41.63;97083.08;108703;1275;23838;-78
2023/08/15 10:15:33;;;;;;;4.40;2.80;;;;;;;30.48;40.84;97083.01;108614;1272;22518;-77
2023/08/15 10:18:06;;;;;;;4.10;2.60;;;;;;;30.24;40.89;97087.46;108613;1272;23712;-77
2023/08/15 10:20:40;;;;;;;3.30;3.00;;;;;;;30.19;41.10;97085.92;108756;1272;22528;-79
2023/08/15 10:23:12;;;;;;;3.30;3.00;;;;;;;30.19;41.75;97079.75;108712;1275;26637;-79
2023/08/15 10:25:44;;;;;;;5.80;3.10;;;;;;;30.10;41.23;97076.02;108711;1274;23037;-79
2023/08/15 10:28:15;;;;;;;3.90;3.00;;;;;;;29.96;40.86;97074.38;108785;1267;22522;-79
2023/08/15 10:30:50;;;;;;;4.10;2.90;;;;;;;29.82;41.04;97077.69;108699;1274;22531;-79
2023/08/15 10:33:25;;;;;;;4.90;3.20;;;;;;;29.69;40.77;97076.22;108709;1272;24658;-79
2023/08/15 10:36:10;;;;;;;5.70;3.40;;;;;;;29.64;41.70;97074.66;108699;1275;25253;-79
2023/08/15 10:38:45;;;;;;;4.30;3.00;;;;;;;29.75;42.70;97075.73;109152;1275;22560;-79
2023/08/15 10:41:18;;;;;;;6.00;2.90;;;;;;;29.89;42.72;97071.74;109061;1275;22525;-78
2023/08/15 10:43:51;;;;;;;4.50;3.10;;;;;;;29.90;42.17;97065.65;109078;1274;22518;-79
2023/08/15 10:46:29;;;;;;;4.50;2.80;;;;;;;29.91;43.04;97066.81;109083;1267;22536;-78
2023/08/15 10:49:06;;;;;;;4.70;2.90;;;;;;;29.91;42.39;97068.84;109130;1275;23021;-78
2023/08/15 10:51:41;;;;;;;5.00;3.20;;;;;;;29.79;42.22;97073.16;109118;1272;22514;-78
2023/08/15 10:54:15;;;;;;;4.10;2.80;;;;;;;29.75;42.15;97072.48;109074;1268;25460;-80
2023/08/15 10:56:46;;;;;;;6.60;3.20;;;;;;;29.79;42.35;97068.94;109084;1267;22656;-79
2023/08/15 10:59:19;;;;;;;4.50;3.10;;;;;;;29.84;42.66;97067.52;109079;1270;22683;-79
2023/08/15 11:01:50;;;;;;;3.70;2.90;;;;;;;29.86;42.54;97068.09;109111;1267;22519;-79
2023/08/15 11:04:28;;;;;;;5.30;3.30;;;;;;;29.83;43.22;97070.25;109025;1272;22547;-80
2023/08/15 11:06:58;;;;;;;5.90;3.10;;;;;;;29.79;42.35;97070.42;109077;1268;25444;-79
2023/08/15 11:09:31;;;;;;;5.30;3.60;;;;;;;29.67;42.41;97072.16;109102;1274;22577;-80
2023/08/15 11:12:08;;;;;;;3.50;3.20;;;;;;;29.67;43.15;97069.11;109128;1269;22921;-80
2023/08/15 11:14:39;;;;;;;5.80;3.50;;;;;;;29.81;43.91;97068.63;109145;1269;22575;-79
2023/08/15 11:17:13;;;;;;;7.10;3.10;;;;;;;29.95;44.14;97068.67;109078;1269;25979;-79
2023/08/15 11:19:46;;;;;;;4.90;3.30;;;;;;;29.98;43.35;97068.52;109120;1274;22744;-78
2023/08/15 11:22:18;;;;;;;4.30;3.00;;;;;;;30.05;43.85;97064.92;109057;1274;22612;-78
2023/08/15 11:24:53;;;;;;;5.20;3.10;;;;;;;30.14;43.99;97065.86;109054;1272;25424;-78
2023/08/15 11:27:24;;;;;;;5.30;3.20;;;;;;;30.22;44.00;97059.65;109065;1274;22557;-78
2023/08/15 11:30:00;;;;;;;3.70;3.20;;;;;;;30.30;44.35;97062.38;109026;1275;22549;-78
2023/08/15 11:32:31;;;;;;;5.20;3.30;;;;;;;30.32;43.85;97055.95;108959;1274;25395;-78
2023/08/15 11:35:03;;;;;;;5.60;3.10;;;;;;;30.33;43.85;97049.14;108951;1274;23860;-78
2023/08/15 11:37:35;;;;;;;3.70;3.30;;;;;;;30.34;43.96;97045.77;108992;1269;22998;-78
2023/08/15 11:40:09;;;;;;;3.80;3.10;;;;;;;30.32;43.78;97046.17;109029;1274;22565;-78
2023/08/15 11:42:41;;;;;;;3.70;3.30;;;;;;;30.33;44.15;97042.10;109102;1274;22518;-78
2023/08/15 11:45:18;;;;;;;5.30;3.60;;;;;;;30.36;43.63;97040.36;109078;1275;22571;-78
2023/08/15 11:48:00;;;;;;;4.60;3.20;;;;;;;30.35;43.54;97041.54;109038;1274;22580;-79